sensor_id;sensor_type;location;lat;lon;timestamp;temperature;humidity
53926;DHT22;39836;52.754;6.866;2022-08-01T00:02:11;18.50;84.30
53926;DHT22;39836;52.754;6.866;2022-08-01T00:04:37;18.50;84.30
53926;DHT22;39836;52.754;6.866;2022-08-01T00:07:03;18.50;84.20
53926;DHT22;39836;52.754;6.866;2022-08-01T00:09:29;18.40;84.20
53926;DHT22;39836;52.754;6.866;2022-08-01T00:11:55;18.50;84.30
53926;DHT22;39836;52.754;6.866;2022-08-01T00:14:20;18.40;84.30
53926;DHT22;39836;52.754;6.866;2022-08-01T00:16:46;18.40;84.30
53926;DHT22;39836;52.754;6.866;2022-08-01T00:19:12;18.50;84.40
53926;DHT22;39836;52.754;6.866;2022-08-01T00:21:43;18.50;84.40
53926;DHT22;39836;52.754;6.866;2022-08-01T00:24:09;18.40;84.40
53926;DHT22;39836;52.754;6.866;2022-08-01T00:26:34;18.50;84.30
53926;DHT22;39836;52.754;6.866;2022-08-01T00:29:00;18.40;84.30
53926;DHT22;39836;52.754;6.866;2022-08-01T00:31:26;18.40;84.30
53926;DHT22;39836;52.754;6.866;2022-08-01T00:33:51;18.40;84.40
53926;DHT22;39836;52.754;6.866;2022-08-01T00:36:17;18.40;84.40
53926;DHT22;39836;52.754;6.866;2022-08-01T00:38:50;18.40;84.40
53926;DHT22;39836;52.754;6.866;2022-08-01T00:41:16;18.50;84.40
53926;DHT22;39836;52.754;6.866;2022-08-01T00:43:42;18.40;84.40
53926;DHT22;39836;52.754;6.866;2022-08-01T00:46:08;18.40;84.40
53926;DHT22;39836;52.754;6.866;2022-08-01T00:48:33;18.40;84.30
53926;DHT22;39836;52.754;6.866;2022-08-01T00:50:59;18.40;84.30
53926;DHT22;39836;52.754;6.866;2022-08-01T00:53:25;18.30;84.30
53926;DHT22;39836;52.754;6.866;2022-08-01T00:55:51;18.40;84.30
53926;DHT22;39836;52.754;6.866;2022-08-01T00:58:17;18.40;84.30
53926;DHT22;39836;52.754;6.866;2022-08-01T01:00:42;18.30;84.30
53926;DHT22;39836;52.754;6.866;2022-08-01T01:03:08;18.30;84.30
53926;DHT22;39836;52.754;6.866;2022-08-01T01:05:45;18.30;84.30
53926;DHT22;39836;52.754;6.866;2022-08-01T01:08:26;18.30;84.30
53926;DHT22;39836;52.754;6.866;2022-08-01T01:11:03;18.30;84.30
53926;DHT22;39836;52.754;6.866;2022-08-01T01:13:43;18.30;84.30
53926;DHT22;39836;52.754;6.866;2022-08-01T01:16:14;18.30;84.30
53926;DHT22;39836;52.754;6.866;2022-08-01T01:18:48;18.30;84.40
53926;DHT22;39836;52.754;6.866;2022-08-01T01:26:45;18.20;84.40
53926;DHT22;39836;52.754;6.866;2022-08-01T01:29:24;18.20;84.30
53926;DHT22;39836;52.754;6.866;2022-08-01T01:32:07;18.20;84.40
53926;DHT22;39836;52.754;6.866;2022-08-01T01:34:40;18.20;84.30
53926;DHT22;39836;52.754;6.866;2022-08-01T01:37:10;18.20;84.40
53926;DHT22;39836;52.754;6.866;2022-08-01T01:39:38;18.20;84.40
53926;DHT22;39836;52.754;6.866;2022-08-01T01:42:06;18.20;84.40
53926;DHT22;39836;52.754;6.866;2022-08-01T01:44:32;18.20;84.40
53926;DHT22;39836;52.754;6.866;2022-08-01T01:46:59;18.20;84.50
53926;DHT22;39836;52.754;6.866;2022-08-01T01:49:27;18.20;84.40
53926;DHT22;39836;52.754;6.866;2022-08-01T01:51:56;18.20;84.50
53926;DHT22;39836;52.754;6.866;2022-08-01T01:54:30;18.20;84.50
53926;DHT22;39836;52.754;6.866;2022-08-01T01:56:58;18.20;84.50
53926;DHT22;39836;52.754;6.866;2022-08-01T01:59:26;18.10;84.30
53926;DHT22;39836;52.754;6.866;2022-08-01T02:01:53;18.10;84.40
53926;DHT22;39836;52.754;6.866;2022-08-01T02:04:20;18.20;84.40
53926;DHT22;39836;52.754;6.866;2022-08-01T02:06:50;18.20;84.50
53926;DHT22;39836;52.754;6.866;2022-08-01T02:09:21;18.20;84.50
53926;DHT22;39836;52.754;6.866;2022-08-01T02:11:50;18.20;84.50
53926;DHT22;39836;52.754;6.866;2022-08-01T02:14:18;18.20;84.50
53926;DHT22;39836;52.754;6.866;2022-08-01T02:16:48;18.20;84.60
53926;DHT22;39836;52.754;6.866;2022-08-01T02:19:17;18.20;84.60
53926;DHT22;39836;52.754;6.866;2022-08-01T02:21:55;18.20;84.50
53926;DHT22;39836;52.754;6.866;2022-08-01T02:27:00;18.20;84.40
53926;DHT22;39836;52.754;6.866;2022-08-01T02:29:57;18.10;84.40
53926;DHT22;39836;52.754;6.866;2022-08-01T02:32:33;18.10;84.40
53926;DHT22;39836;52.754;6.866;2022-08-01T02:35:02;18.10;84.40
53926;DHT22;39836;52.754;6.866;2022-08-01T02:37:34;18.10;84.40
53926;DHT22;39836;52.754;6.866;2022-08-01T02:40:00;18.10;84.40
53926;DHT22;39836;52.754;6.866;2022-08-01T02:42:28;18.00;84.30
53926;DHT22;39836;52.754;6.866;2022-08-01T02:44:55;18.00;84.30
53926;DHT22;39836;52.754;6.866;2022-08-01T02:47:22;18.00;84.30
53926;DHT22;39836;52.754;6.866;2022-08-01T02:49:52;18.00;84.30
53926;DHT22;39836;52.754;6.866;2022-08-01T02:52:20;18.00;84.30
53926;DHT22;39836;52.754;6.866;2022-08-01T02:54:49;18.00;84.30
53926;DHT22;39836;52.754;6.866;2022-08-01T02:57:16;17.90;84.30
53926;DHT22;39836;52.754;6.866;2022-08-01T02:59:44;17.90;84.30
53926;DHT22;39836;52.754;6.866;2022-08-01T03:02:11;17.90;84.30
53926;DHT22;39836;52.754;6.866;2022-08-01T03:04:39;17.90;84.30
53926;DHT22;39836;52.754;6.866;2022-08-01T03:07:08;17.90;84.30
53926;DHT22;39836;52.754;6.866;2022-08-01T03:09:38;17.90;84.30
53926;DHT22;39836;52.754;6.866;2022-08-01T03:12:09;17.90;84.40
53926;DHT22;39836;52.754;6.866;2022-08-01T03:14:36;17.90;84.40
53926;DHT22;39836;52.754;6.866;2022-08-01T03:17:05;17.90;84.40
53926;DHT22;39836;52.754;6.866;2022-08-01T03:19:33;17.90;84.40
53926;DHT22;39836;52.754;6.866;2022-08-01T03:22:00;17.90;84.40
53926;DHT22;39836;52.754;6.866;2022-08-01T03:24:29;17.90;84.30
53926;DHT22;39836;52.754;6.866;2022-08-01T03:26:56;17.80;84.30
53926;DHT22;39836;52.754;6.866;2022-08-01T03:29:26;17.80;84.40
53926;DHT22;39836;52.754;6.866;2022-08-01T03:31:52;17.80;84.40
53926;DHT22;39836;52.754;6.866;2022-08-01T03:34:18;17.80;84.40
53926;DHT22;39836;52.754;6.866;2022-08-01T03:36:55;17.80;84.40
53926;DHT22;39836;52.754;6.866;2022-08-01T03:39:26;17.80;84.40
53926;DHT22;39836;52.754;6.866;2022-08-01T03:42:01;17.80;84.40
53926;DHT22;39836;52.754;6.866;2022-08-01T03:44:32;17.80;84.40
53926;DHT22;39836;52.754;6.866;2022-08-01T03:47:00;17.80;84.40
53926;DHT22;39836;52.754;6.866;2022-08-01T03:49:35;17.80;84.40
53926;DHT22;39836;52.754;6.866;2022-08-01T03:52:07;17.80;84.40
53926;DHT22;39836;52.754;6.866;2022-08-01T03:54:36;17.80;84.40
53926;DHT22;39836;52.754;6.866;2022-08-01T03:57:04;17.80;84.40
53926;DHT22;39836;52.754;6.866;2022-08-01T03:59:30;17.80;84.30
53926;DHT22;39836;52.754;6.866;2022-08-01T04:01:58;17.80;84.20
53926;DHT22;39836;52.754;6.866;2022-08-01T04:04:24;17.80;84.30
53926;DHT22;39836;52.754;6.866;2022-08-01T04:06:50;17.70;84.20
53926;DHT22;39836;52.754;6.866;2022-08-01T04:09:19;17.70;84.20
53926;DHT22;39836;52.754;6.866;2022-08-01T04:11:46;17.70;84.20
53926;DHT22;39836;52.754;6.866;2022-08-01T04:14:12;17.70;84.20
53926;DHT22;39836;52.754;6.866;2022-08-01T04:16:38;17.70;84.10
53926;DHT22;39836;52.754;6.866;2022-08-01T04:19:06;17.70;84.00
53926;DHT22;39836;52.754;6.866;2022-08-01T04:21:35;17.70;83.80
53926;DHT22;39836;52.754;6.866;2022-08-01T04:24:12;17.70;83.70
53926;DHT22;39836;52.754;6.866;2022-08-01T04:26:39;17.60;83.60
53926;DHT22;39836;52.754;6.866;2022-08-01T04:29:08;17.70;83.60
53926;DHT22;39836;52.754;6.866;2022-08-01T04:31:36;17.50;83.60
53926;DHT22;39836;52.754;6.866;2022-08-01T04:34:05;17.60;83.50
53926;DHT22;39836;52.754;6.866;2022-08-01T04:36:34;17.60;83.60
53926;DHT22;39836;52.754;6.866;2022-08-01T04:39:02;17.60;83.50
53926;DHT22;39836;52.754;6.866;2022-08-01T04:41:30;17.50;83.40
53926;DHT22;39836;52.754;6.866;2022-08-01T04:43:57;17.50;83.40
53926;DHT22;39836;52.754;6.866;2022-08-01T04:46:24;17.50;83.40
53926;DHT22;39836;52.754;6.866;2022-08-01T04:48:50;17.50;83.40
53926;DHT22;39836;52.754;6.866;2022-08-01T04:51:17;17.50;83.40
53926;DHT22;39836;52.754;6.866;2022-08-01T04:53:44;17.50;83.40
53926;DHT22;39836;52.754;6.866;2022-08-01T04:56:11;17.50;83.50
53926;DHT22;39836;52.754;6.866;2022-08-01T04:58:39;17.40;83.40
53926;DHT22;39836;52.754;6.866;2022-08-01T05:01:07;17.50;83.40
53926;DHT22;39836;52.754;6.866;2022-08-01T05:03:35;17.50;83.50
53926;DHT22;39836;52.754;6.866;2022-08-01T05:06:01;17.50;83.50
53926;DHT22;39836;52.754;6.866;2022-08-01T05:08:28;17.50;83.50
53926;DHT22;39836;52.754;6.866;2022-08-01T05:10:53;17.50;83.50
53926;DHT22;39836;52.754;6.866;2022-08-01T05:13:20;17.50;83.50
53926;DHT22;39836;52.754;6.866;2022-08-01T05:15:46;17.50;83.60
53926;DHT22;39836;52.754;6.866;2022-08-01T05:18:13;17.50;83.40
53926;DHT22;39836;52.754;6.866;2022-08-01T05:20:39;17.50;83.40
53926;DHT22;39836;52.754;6.866;2022-08-01T05:23:06;17.50;83.40
53926;DHT22;39836;52.754;6.866;2022-08-01T05:25:32;17.60;83.40
53926;DHT22;39836;52.754;6.866;2022-08-01T05:27:59;17.50;83.30
53926;DHT22;39836;52.754;6.866;2022-08-01T05:30:25;17.50;83.30
53926;DHT22;39836;52.754;6.866;2022-08-01T05:32:52;17.50;83.30
53926;DHT22;39836;52.754;6.866;2022-08-01T05:35:18;17.50;83.30
53926;DHT22;39836;52.754;6.866;2022-08-01T05:37:44;17.50;83.40
53926;DHT22;39836;52.754;6.866;2022-08-01T05:40:11;17.50;83.40
53926;DHT22;39836;52.754;6.866;2022-08-01T05:42:37;17.50;83.20
53926;DHT22;39836;52.754;6.866;2022-08-01T05:45:03;17.60;83.20
53926;DHT22;39836;52.754;6.866;2022-08-01T05:47:29;17.60;83.10
53926;DHT22;39836;52.754;6.866;2022-08-01T05:49:54;17.60;83.00
53926;DHT22;39836;52.754;6.866;2022-08-01T05:52:20;17.60;83.00
53926;DHT22;39836;52.754;6.866;2022-08-01T05:54:46;17.60;83.10
53926;DHT22;39836;52.754;6.866;2022-08-01T05:57:12;17.60;83.00
53926;DHT22;39836;52.754;6.866;2022-08-01T05:59:37;17.60;82.90
53926;DHT22;39836;52.754;6.866;2022-08-01T06:02:03;17.60;82.60
53926;DHT22;39836;52.754;6.866;2022-08-01T06:04:29;17.60;82.40
53926;DHT22;39836;52.754;6.866;2022-08-01T06:06:54;17.60;82.30
53926;DHT22;39836;52.754;6.866;2022-08-01T06:09:20;17.60;82.30
53926;DHT22;39836;52.754;6.866;2022-08-01T06:11:46;17.60;82.40
53926;DHT22;39836;52.754;6.866;2022-08-01T06:14:13;17.60;82.20
53926;DHT22;39836;52.754;6.866;2022-08-01T06:16:38;17.60;81.90
53926;DHT22;39836;52.754;6.866;2022-08-01T06:19:05;17.50;81.80
53926;DHT22;39836;52.754;6.866;2022-08-01T06:21:30;17.50;81.90
53926;DHT22;39836;52.754;6.866;2022-08-01T06:23:56;17.40;82.00
53926;DHT22;39836;52.754;6.866;2022-08-01T06:26:22;17.40;82.00
53926;DHT22;39836;52.754;6.866;2022-08-01T06:28:47;17.40;81.80
53926;DHT22;39836;52.754;6.866;2022-08-01T06:31:13;17.50;82.00
53926;DHT22;39836;52.754;6.866;2022-08-01T06:33:40;17.50;82.00
53926;DHT22;39836;52.754;6.866;2022-08-01T06:36:05;17.50;81.80
53926;DHT22;39836;52.754;6.866;2022-08-01T06:38:31;17.60;81.70
53926;DHT22;39836;52.754;6.866;2022-08-01T06:40:57;17.60;81.60
53926;DHT22;39836;52.754;6.866;2022-08-01T06:43:22;17.60;81.60
53926;DHT22;39836;52.754;6.866;2022-08-01T06:45:48;17.70;81.50
53926;DHT22;39836;52.754;6.866;2022-08-01T06:48:14;17.70;81.60
53926;DHT22;39836;52.754;6.866;2022-08-01T06:50:40;17.70;81.60
53926;DHT22;39836;52.754;6.866;2022-08-01T06:53:06;17.80;81.50
53926;DHT22;39836;52.754;6.866;2022-08-01T06:55:32;17.80;81.60
53926;DHT22;39836;52.754;6.866;2022-08-01T06:57:57;17.80;81.50
53926;DHT22;39836;52.754;6.866;2022-08-01T07:00:25;17.80;81.00
53926;DHT22;39836;52.754;6.866;2022-08-01T07:02:52;17.80;80.90
53926;DHT22;39836;52.754;6.866;2022-08-01T07:05:19;17.70;80.70
53926;DHT22;39836;52.754;6.866;2022-08-01T07:07:44;17.80;80.60
53926;DHT22;39836;52.754;6.866;2022-08-01T07:10:10;17.80;80.20
53926;DHT22;39836;52.754;6.866;2022-08-01T07:12:36;17.90;80.20
53926;DHT22;39836;52.754;6.866;2022-08-01T07:15:07;17.90;80.20
53926;DHT22;39836;52.754;6.866;2022-08-01T07:17:39;18.00;80.40
53926;DHT22;39836;52.754;6.866;2022-08-01T07:20:10;18.10;80.50
53926;DHT22;39836;52.754;6.866;2022-08-01T07:22:37;18.30;80.70
53926;DHT22;39836;52.754;6.866;2022-08-01T07:25:05;18.40;80.50
53926;DHT22;39836;52.754;6.866;2022-08-01T07:27:31;18.50;80.70
53926;DHT22;39836;52.754;6.866;2022-08-01T07:29:56;18.60;80.40
53926;DHT22;39836;52.754;6.866;2022-08-01T07:32:22;18.60;80.40
53926;DHT22;39836;52.754;6.866;2022-08-01T07:34:48;18.70;80.40
53926;DHT22;39836;52.754;6.866;2022-08-01T07:37:14;18.70;80.40
53926;DHT22;39836;52.754;6.866;2022-08-01T07:39:39;18.80;80.40
53926;DHT22;39836;52.754;6.866;2022-08-01T07:42:05;18.90;80.00
53926;DHT22;39836;52.754;6.866;2022-08-01T07:44:31;18.90;79.20
53926;DHT22;39836;52.754;6.866;2022-08-01T07:46:57;18.90;79.10
53926;DHT22;39836;52.754;6.866;2022-08-01T07:49:22;18.90;79.20
53926;DHT22;39836;52.754;6.866;2022-08-01T07:51:48;18.90;78.90
53926;DHT22;39836;52.754;6.866;2022-08-01T07:54:14;18.90;79.00
53926;DHT22;39836;52.754;6.866;2022-08-01T07:56:39;18.90;78.90
53926;DHT22;39836;52.754;6.866;2022-08-01T07:59:05;18.80;78.70
53926;DHT22;39836;52.754;6.866;2022-08-01T08:01:31;18.80;78.90
53926;DHT22;39836;52.754;6.866;2022-08-01T08:03:56;18.70;79.00
53926;DHT22;39836;52.754;6.866;2022-08-01T08:06:22;18.70;79.10
53926;DHT22;39836;52.754;6.866;2022-08-01T08:08:48;18.70;78.90
53926;DHT22;39836;52.754;6.866;2022-08-01T08:11:14;18.70;78.70
53926;DHT22;39836;52.754;6.866;2022-08-01T08:13:39;18.80;78.80
53926;DHT22;39836;52.754;6.866;2022-08-01T08:16:05;18.80;78.90
53926;DHT22;39836;52.754;6.866;2022-08-01T08:18:30;18.80;78.90
53926;DHT22;39836;52.754;6.866;2022-08-01T08:20:56;18.80;79.10
53926;DHT22;39836;52.754;6.866;2022-08-01T08:23:22;18.90;79.10
53926;DHT22;39836;52.754;6.866;2022-08-01T08:26:06;18.90;78.40
53926;DHT22;39836;52.754;6.866;2022-08-01T08:28:31;18.90;78.60
53926;DHT22;39836;52.754;6.866;2022-08-01T08:30:57;18.90;78.50
53926;DHT22;39836;52.754;6.866;2022-08-01T08:33:23;18.90;78.30
53926;DHT22;39836;52.754;6.866;2022-08-01T08:35:49;18.80;78.50
53926;DHT22;39836;52.754;6.866;2022-08-01T08:38:14;18.90;78.70
53926;DHT22;39836;52.754;6.866;2022-08-01T08:40:40;19.00;78.90
53926;DHT22;39836;52.754;6.866;2022-08-01T08:43:06;19.10;78.60
53926;DHT22;39836;52.754;6.866;2022-08-01T08:45:32;19.20;78.00
53926;DHT22;39836;52.754;6.866;2022-08-01T08:47:59;19.20;77.50
53926;DHT22;39836;52.754;6.866;2022-08-01T08:50:26;19.20;77.70
53926;DHT22;39836;52.754;6.866;2022-08-01T08:52:54;19.20;77.50
53926;DHT22;39836;52.754;6.866;2022-08-01T08:55:20;19.30;77.70
53926;DHT22;39836;52.754;6.866;2022-08-01T08:57:47;19.30;77.40
53926;DHT22;39836;52.754;6.866;2022-08-01T09:00:14;19.30;77.20
53926;DHT22;39836;52.754;6.866;2022-08-01T09:02:45;19.30;77.70
53926;DHT22;39836;52.754;6.866;2022-08-01T09:05:12;19.40;77.70
53926;DHT22;39836;52.754;6.866;2022-08-01T09:07:38;19.50;77.60
53926;DHT22;39836;52.754;6.866;2022-08-01T09:10:04;19.60;77.30
53926;DHT22;39836;52.754;6.866;2022-08-01T09:12:30;19.50;77.50
53926;DHT22;39836;52.754;6.866;2022-08-01T09:14:56;19.70;77.80
53926;DHT22;39836;52.754;6.866;2022-08-01T09:17:22;19.80;77.70
53926;DHT22;39836;52.754;6.866;2022-08-01T09:19:51;19.90;76.50
53926;DHT22;39836;52.754;6.866;2022-08-01T09:22:26;20.00;77.10
53926;DHT22;39836;52.754;6.866;2022-08-01T09:25:08;20.20;76.80
53926;DHT22;39836;52.754;6.866;2022-08-01T09:27:35;20.30;76.70
53926;DHT22;39836;52.754;6.866;2022-08-01T09:30:21;20.30;76.10
53926;DHT22;39836;52.754;6.866;2022-08-01T09:32:58;20.30;76.00
53926;DHT22;39836;52.754;6.866;2022-08-01T09:35:31;20.30;76.20
53926;DHT22;39836;52.754;6.866;2022-08-01T09:38:25;20.40;75.90
53926;DHT22;39836;52.754;6.866;2022-08-01T09:40:59;20.40;75.70
53926;DHT22;39836;52.754;6.866;2022-08-01T09:43:27;20.30;75.80
53926;DHT22;39836;52.754;6.866;2022-08-01T09:45:53;20.30;76.20
53926;DHT22;39836;52.754;6.866;2022-08-01T09:48:21;20.30;76.10
53926;DHT22;39836;52.754;6.866;2022-08-01T09:50:49;20.30;76.40
53926;DHT22;39836;52.754;6.866;2022-08-01T09:53:15;20.40;76.30
53926;DHT22;39836;52.754;6.866;2022-08-01T09:55:42;20.40;76.20
53926;DHT22;39836;52.754;6.866;2022-08-01T09:58:08;20.40;76.50
53926;DHT22;39836;52.754;6.866;2022-08-01T10:00:36;20.50;76.70
53926;DHT22;39836;52.754;6.866;2022-08-01T10:03:22;20.60;76.40
53926;DHT22;39836;52.754;6.866;2022-08-01T10:05:48;20.70;76.50
53926;DHT22;39836;52.754;6.866;2022-08-01T10:08:14;20.70;75.20
53926;DHT22;39836;52.754;6.866;2022-08-01T10:10:40;20.70;75.30
53926;DHT22;39836;52.754;6.866;2022-08-01T10:13:07;20.80;75.80
53926;DHT22;39836;52.754;6.866;2022-08-01T10:15:34;20.90;75.70
53926;DHT22;39836;52.754;6.866;2022-08-01T10:18:01;21.10;75.20
53926;DHT22;39836;52.754;6.866;2022-08-01T10:20:31;21.20;75.30
53926;DHT22;39836;52.754;6.866;2022-08-01T10:23:02;21.40;75.60
53926;DHT22;39836;52.754;6.866;2022-08-01T10:25:34;21.50;74.90
53926;DHT22;39836;52.754;6.866;2022-08-01T10:28:02;21.60;74.20
53926;DHT22;39836;52.754;6.866;2022-08-01T10:30:31;21.50;73.40
53926;DHT22;39836;52.754;6.866;2022-08-01T10:32:57;21.40;74.00
53926;DHT22;39836;52.754;6.866;2022-08-01T10:35:23;21.50;73.10
53926;DHT22;39836;52.754;6.866;2022-08-01T10:37:48;21.40;72.50
53926;DHT22;39836;52.754;6.866;2022-08-01T10:40:16;21.50;73.30
53926;DHT22;39836;52.754;6.866;2022-08-01T10:42:44;21.60;72.80
53926;DHT22;39836;52.754;6.866;2022-08-01T10:45:12;21.60;72.60
53926;DHT22;39836;52.754;6.866;2022-08-01T10:47:51;21.70;72.70
53926;DHT22;39836;52.754;6.866;2022-08-01T10:50:26;22.00;73.40
53926;DHT22;39836;52.754;6.866;2022-08-01T10:53:17;22.20;73.20
53926;DHT22;39836;52.754;6.866;2022-08-01T10:58:13;22.10;72.00
53926;DHT22;39836;52.754;6.866;2022-08-01T11:00:39;22.10;72.20
53926;DHT22;39836;52.754;6.866;2022-08-01T11:03:04;22.20;72.70
53926;DHT22;39836;52.754;6.866;2022-08-01T11:05:34;22.30;72.20
53926;DHT22;39836;52.754;6.866;2022-08-01T11:08:09;22.40;72.30
53926;DHT22;39836;52.754;6.866;2022-08-01T11:10:40;22.40;72.00
53926;DHT22;39836;52.754;6.866;2022-08-01T11:13:08;22.40;71.00
53926;DHT22;39836;52.754;6.866;2022-08-01T11:15:35;22.50;70.80
53926;DHT22;39836;52.754;6.866;2022-08-01T11:18:02;22.40;70.80
53926;DHT22;39836;52.754;6.866;2022-08-01T11:20:31;22.50;70.90
53926;DHT22;39836;52.754;6.866;2022-08-01T11:30:48;22.70;70.90
53926;DHT22;39836;52.754;6.866;2022-08-01T11:33:16;22.80;70.90
53926;DHT22;39836;52.754;6.866;2022-08-01T11:38:38;22.90;69.40
53926;DHT22;39836;52.754;6.866;2022-08-01T11:41:31;22.50;69.50
53926;DHT22;39836;52.754;6.866;2022-08-01T11:44:01;22.20;69.20
53926;DHT22;39836;52.754;6.866;2022-08-01T11:49:28;22.20;69.80
53926;DHT22;39836;52.754;6.866;2022-08-01T11:52:14;22.40;69.80
53926;DHT22;39836;52.754;6.866;2022-08-01T11:54:55;22.60;70.30
53926;DHT22;39836;52.754;6.866;2022-08-01T11:57:29;22.80;69.70
53926;DHT22;39836;52.754;6.866;2022-08-01T11:59:57;22.90;69.70
53926;DHT22;39836;52.754;6.866;2022-08-01T12:02:28;22.90;69.10
53926;DHT22;39836;52.754;6.866;2022-08-01T12:04:55;22.90;68.90
53926;DHT22;39836;52.754;6.866;2022-08-01T12:07:22;22.90;68.80
53926;DHT22;39836;52.754;6.866;2022-08-01T12:09:48;22.90;68.70
53926;DHT22;39836;52.754;6.866;2022-08-01T12:12:21;22.90;69.00
53926;DHT22;39836;52.754;6.866;2022-08-01T12:14:56;22.90;68.10
53926;DHT22;39836;52.754;6.866;2022-08-01T12:17:40;22.90;68.00
53926;DHT22;39836;52.754;6.866;2022-08-01T12:20:09;22.90;68.50
53926;DHT22;39836;52.754;6.866;2022-08-01T12:22:35;22.90;68.20
53926;DHT22;39836;52.754;6.866;2022-08-01T12:25:10;22.80;68.40
53926;DHT22;39836;52.754;6.866;2022-08-01T12:27:37;23.00;68.90
53926;DHT22;39836;52.754;6.866;2022-08-01T12:30:08;23.20;68.20
53926;DHT22;39836;52.754;6.866;2022-08-01T12:32:37;23.30;67.90
53926;DHT22;39836;52.754;6.866;2022-08-01T12:35:11;23.20;67.50
53926;DHT22;39836;52.754;6.866;2022-08-01T12:37:42;23.00;67.90
53926;DHT22;39836;52.754;6.866;2022-08-01T12:40:20;22.80;68.30
53926;DHT22;39836;52.754;6.866;2022-08-01T12:42:48;22.80;68.20
53926;DHT22;39836;52.754;6.866;2022-08-01T12:45:17;22.80;68.20
53926;DHT22;39836;52.754;6.866;2022-08-01T12:47:44;22.80;68.00
53926;DHT22;39836;52.754;6.866;2022-08-01T12:50:16;22.80;68.30
53926;DHT22;39836;52.754;6.866;2022-08-01T12:52:42;23.00;68.00
53926;DHT22;39836;52.754;6.866;2022-08-01T12:55:19;23.10;67.60
53926;DHT22;39836;52.754;6.866;2022-08-01T12:57:48;23.30;68.00
53926;DHT22;39836;52.754;6.866;2022-08-01T13:00:22;23.60;67.90
53926;DHT22;39836;52.754;6.866;2022-08-01T13:03:00;23.70;67.80
53926;DHT22;39836;52.754;6.866;2022-08-01T13:05:26;23.90;67.90
53926;DHT22;39836;52.754;6.866;2022-08-01T13:07:52;23.90;67.20
53926;DHT22;39836;52.754;6.866;2022-08-01T13:10:29;24.00;67.30
53926;DHT22;39836;52.754;6.866;2022-08-01T13:12:57;24.30;67.70
53926;DHT22;39836;52.754;6.866;2022-08-01T13:17:53;24.80;67.00
53926;DHT22;39836;52.754;6.866;2022-08-01T13:20:33;24.90;66.40
53926;DHT22;39836;52.754;6.866;2022-08-01T13:23:13;24.90;66.80
53926;DHT22;39836;52.754;6.866;2022-08-01T13:25:51;24.60;66.60
53926;DHT22;39836;52.754;6.866;2022-08-01T13:28:20;24.40;66.60
53926;DHT22;39836;52.754;6.866;2022-08-01T13:33:26;24.20;66.00
53926;DHT22;39836;52.754;6.866;2022-08-01T13:35:54;24.20;65.70
53926;DHT22;39836;52.754;6.866;2022-08-01T13:38:20;24.40;65.90
53926;DHT22;39836;52.754;6.866;2022-08-01T13:41:06;24.60;65.80
53926;DHT22;39836;52.754;6.866;2022-08-01T13:43:32;25.00;65.70
53926;DHT22;39836;52.754;6.866;2022-08-01T13:46:00;25.20;65.40
53926;DHT22;39836;52.754;6.866;2022-08-01T13:48:28;25.20;65.50
53926;DHT22;39836;52.754;6.866;2022-08-01T13:50:53;25.20;65.40
53926;DHT22;39836;52.754;6.866;2022-08-01T13:53:19;25.20;65.40
53926;DHT22;39836;52.754;6.866;2022-08-01T13:55:45;25.00;65.20
53926;DHT22;39836;52.754;6.866;2022-08-01T13:58:10;24.90;65.20
53926;DHT22;39836;52.754;6.866;2022-08-01T14:00:36;24.60;65.40
53926;DHT22;39836;52.754;6.866;2022-08-01T14:03:02;24.50;64.80
53926;DHT22;39836;52.754;6.866;2022-08-01T14:05:27;24.20;65.30
53926;DHT22;39836;52.754;6.866;2022-08-01T14:07:53;24.30;65.30
53926;DHT22;39836;52.754;6.866;2022-08-01T14:10:19;24.70;65.00
53926;DHT22;39836;52.754;6.866;2022-08-01T14:12:44;25.20;65.20
53926;DHT22;39836;52.754;6.866;2022-08-01T14:15:10;25.70;65.50
53926;DHT22;39836;52.754;6.866;2022-08-01T14:17:36;26.20;65.40
53926;DHT22;39836;52.754;6.866;2022-08-01T14:20:02;26.50;65.10
53926;DHT22;39836;52.754;6.866;2022-08-01T14:22:29;26.40;65.30
53926;DHT22;39836;52.754;6.866;2022-08-01T14:24:55;26.10;64.00
53926;DHT22;39836;52.754;6.866;2022-08-01T14:27:21;25.50;64.10
53926;DHT22;39836;52.754;6.866;2022-08-01T14:29:46;25.00;64.20
53926;DHT22;39836;52.754;6.866;2022-08-01T14:32:12;24.80;64.50
53926;DHT22;39836;52.754;6.866;2022-08-01T14:34:38;24.70;64.50
53926;DHT22;39836;52.754;6.866;2022-08-01T14:37:04;24.90;64.50
53926;DHT22;39836;52.754;6.866;2022-08-01T14:39:29;25.50;64.60
53926;DHT22;39836;52.754;6.866;2022-08-01T14:41:55;26.30;64.80
53926;DHT22;39836;52.754;6.866;2022-08-01T14:44:20;27.10;64.60
53926;DHT22;39836;52.754;6.866;2022-08-01T14:46:46;27.80;64.30
53926;DHT22;39836;52.754;6.866;2022-08-01T14:49:14;28.10;63.60
53926;DHT22;39836;52.754;6.866;2022-08-01T14:51:39;28.40;63.70
53926;DHT22;39836;52.754;6.866;2022-08-01T14:54:05;29.00;62.30
53926;DHT22;39836;52.754;6.866;2022-08-01T14:56:31;29.20;62.40
53926;DHT22;39836;52.754;6.866;2022-08-01T14:58:59;29.60;62.70
53926;DHT22;39836;52.754;6.866;2022-08-01T15:01:25;29.90;62.50
53926;DHT22;39836;52.754;6.866;2022-08-01T15:03:51;30.50;62.20
53926;DHT22;39836;52.754;6.866;2022-08-01T15:06:17;29.80;61.70
53926;DHT22;39836;52.754;6.866;2022-08-01T15:08:43;29.30;61.80
53926;DHT22;39836;52.754;6.866;2022-08-01T15:11:09;29.00;61.50
53926;DHT22;39836;52.754;6.866;2022-08-01T15:13:35;28.50;61.40
53926;DHT22;39836;52.754;6.866;2022-08-01T15:16:01;28.20;61.20
53926;DHT22;39836;52.754;6.866;2022-08-01T15:18:28;28.20;61.20
53926;DHT22;39836;52.754;6.866;2022-08-01T15:20:54;28.60;61.30
53926;DHT22;39836;52.754;6.866;2022-08-01T15:23:20;28.90;60.90
53926;DHT22;39836;52.754;6.866;2022-08-01T15:25:46;29.10;60.90
53926;DHT22;39836;52.754;6.866;2022-08-01T15:28:12;28.90;61.00
53926;DHT22;39836;52.754;6.866;2022-08-01T15:30:39;28.70;61.10
53926;DHT22;39836;52.754;6.866;2022-08-01T15:33:05;28.10;61.20
53926;DHT22;39836;52.754;6.866;2022-08-01T15:35:31;27.70;61.00
53926;DHT22;39836;52.754;6.866;2022-08-01T15:37:56;27.00;60.90
53926;DHT22;39836;52.754;6.866;2022-08-01T15:40:22;26.60;61.10
53926;DHT22;39836;52.754;6.866;2022-08-01T15:42:48;26.10;61.30
53926;DHT22;39836;52.754;6.866;2022-08-01T15:45:14;25.90;61.10
53926;DHT22;39836;52.754;6.866;2022-08-01T15:47:43;25.60;61.20
53926;DHT22;39836;52.754;6.866;2022-08-01T15:50:10;25.20;61.20
53926;DHT22;39836;52.754;6.866;2022-08-01T15:52:35;25.00;61.10
53926;DHT22;39836;52.754;6.866;2022-08-01T15:55:01;24.90;61.40
53926;DHT22;39836;52.754;6.866;2022-08-01T15:57:30;24.80;61.40
53926;DHT22;39836;52.754;6.866;2022-08-01T15:59:56;24.50;61.50
53926;DHT22;39836;52.754;6.866;2022-08-01T16:02:22;24.50;61.60
53926;DHT22;39836;52.754;6.866;2022-08-01T16:04:48;24.30;61.70
53926;DHT22;39836;52.754;6.866;2022-08-01T16:07:13;24.10;61.70